sensor_id;sensor_type;location;lat;lon;timestamp;P1;durP1;ratioP1;P2;durP2;ratioP2
11823;SDS011;5969;50.780;7.726;2022-10-16T00:00:38;4.10;;;3.70;;
11823;SDS011;5969;50.780;7.726;2022-10-16T00:03:06;6.20;;;3.40;;
11823;SDS011;5969;50.780;7.726;2022-10-16T00:05:37;5.38;;;3.53;;
11823;SDS011;5969;50.780;7.726;2022-10-16T00:08:06;3.67;;;3.13;;
11823;SDS011;5969;50.780;7.726;2022-10-16T00:10:34;3.33;;;3.00;;
11823;SDS011;5969;50.780;7.726;2022-10-16T00:13:01;3.13;;;2.83;;
11823;SDS011;5969;50.780;7.726;2022-10-16T00:15:29;5.57;;;2.90;;
11823;SDS011;5969;50.780;7.726;2022-10-16T00:17:56;3.95;;;2.92;;
11823;SDS011;5969;50.780;7.726;2022-10-16T00:20:23;3.60;;;3.30;;
11823;SDS011;5969;50.780;7.726;2022-10-16T00:22:50;3.70;;;3.03;;
11823;SDS011;5969;50.780;7.726;2022-10-16T00:25:18;4.88;;;2.97;;
11823;SDS011;5969;50.780;7.726;2022-10-16T00:27:45;4.15;;;2.80;;
11823;SDS011;5969;50.780;7.726;2022-10-16T00:30:12;3.65;;;2.60;;
11823;SDS011;5969;50.780;7.726;2022-10-16T00:32:38;4.15;;;2.80;;
11823;SDS011;5969;50.780;7.726;2022-10-16T00:35:06;4.47;;;2.47;;
11823;SDS011;5969;50.780;7.726;2022-10-16T00:37:33;4.50;;;2.47;;
11823;SDS011;5969;50.780;7.726;2022-10-16T00:39:59;3.25;;;2.95;;
11823;SDS011;5969;50.780;7.726;2022-10-16T00:42:28;4.22;;;2.75;;
11823;SDS011;5969;50.780;7.726;2022-10-16T00:44:55;2.70;;;2.50;;
11823;SDS011;5969;50.780;7.726;2022-10-16T00:47:24;6.28;;;2.70;;
11823;SDS011;5969;50.780;7.726;2022-10-16T00:49:56;3.03;;;2.65;;
11823;SDS011;5969;50.780;7.726;2022-10-16T00:52:27;3.72;;;2.60;;
11823;SDS011;5969;50.780;7.726;2022-10-16T00:54:54;4.72;;;3.15;;
11823;SDS011;5969;50.780;7.726;2022-10-16T00:57:21;5.18;;;2.75;;
11823;SDS011;5969;50.780;7.726;2022-10-16T00:59:50;2.67;;;2.47;;
11823;SDS011;5969;50.780;7.726;2022-10-16T01:02:17;2.35;;;2.15;;
11823;SDS011;5969;50.780;7.726;2022-10-16T01:04:45;3.67;;;2.88;;
11823;SDS011;5969;50.780;7.726;2022-10-16T01:07:16;4.25;;;2.70;;
11823;SDS011;5969;50.780;7.726;2022-10-16T01:09:53;3.17;;;2.40;;
11823;SDS011;5969;50.780;7.726;2022-10-16T01:12:28;3.72;;;2.90;;
11823;SDS011;5969;50.780;7.726;2022-10-16T01:15:04;4.10;;;3.08;;
11823;SDS011;5969;50.780;7.726;2022-10-16T01:17:37;3.50;;;3.10;;
11823;SDS011;5969;50.780;7.726;2022-10-16T01:20:10;5.20;;;3.35;;
11823;SDS011;5969;50.780;7.726;2022-10-16T01:22:45;4.72;;;3.38;;
11823;SDS011;5969;50.780;7.726;2022-10-16T01:25:23;3.55;;;3.25;;
11823;SDS011;5969;50.780;7.726;2022-10-16T01:27:58;5.93;;;3.30;;
11823;SDS011;5969;50.780;7.726;2022-10-16T01:30:29;4.00;;;3.70;;
11823;SDS011;5969;50.780;7.726;2022-10-16T01:32:59;4.95;;;3.90;;
11823;SDS011;5969;50.780;7.726;2022-10-16T01:35:32;3.63;;;3.28;;
11823;SDS011;5969;50.780;7.726;2022-10-16T01:38:03;7.10;;;4.22;;
11823;SDS011;5969;50.780;7.726;2022-10-16T01:40:34;3.78;;;3.47;;
11823;SDS011;5969;50.780;7.726;2022-10-16T01:43:06;6.63;;;4.05;;
11823;SDS011;5969;50.780;7.726;2022-10-16T01:45:36;4.75;;;4.25;;
11823;SDS011;5969;50.780;7.726;2022-10-16T01:48:04;4.68;;;4.22;;
11823;SDS011;5969;50.780;7.726;2022-10-16T01:50:35;4.78;;;4.38;;
11823;SDS011;5969;50.780;7.726;2022-10-16T01:53:05;4.30;;;3.90;;
11823;SDS011;5969;50.780;7.726;2022-10-16T01:55:36;6.82;;;4.80;;
11823;SDS011;5969;50.780;7.726;2022-10-16T01:58:07;6.65;;;4.40;;
11823;SDS011;5969;50.780;7.726;2022-10-16T02:00:36;5.35;;;4.43;;
11823;SDS011;5969;50.780;7.726;2022-10-16T02:03:05;5.97;;;4.25;;
11823;SDS011;5969;50.780;7.726;2022-10-16T02:05:34;5.90;;;3.58;;
11823;SDS011;5969;50.780;7.726;2022-10-16T02:08:06;4.60;;;3.28;;
11823;SDS011;5969;50.780;7.726;2022-10-16T02:10:34;6.20;;;3.90;;
11823;SDS011;5969;50.780;7.726;2022-10-16T02:13:03;4.05;;;3.65;;
11823;SDS011;5969;50.780;7.726;2022-10-16T02:15:34;4.75;;;3.80;;
11823;SDS011;5969;50.780;7.726;2022-10-16T02:18:01;4.15;;;3.60;;
11823;SDS011;5969;50.780;7.726;2022-10-16T02:20:28;5.18;;;4.15;;
11823;SDS011;5969;50.780;7.726;2022-10-16T02:23:00;6.13;;;3.78;;
11823;SDS011;5969;50.780;7.726;2022-10-16T02:25:29;4.95;;;3.58;;
11823;SDS011;5969;50.780;7.726;2022-10-16T02:27:59;5.03;;;3.95;;
11823;SDS011;5969;50.780;7.726;2022-10-16T02:30:30;4.97;;;3.70;;
11823;SDS011;5969;50.780;7.726;2022-10-16T02:33:03;4.13;;;3.80;;
11823;SDS011;5969;50.780;7.726;2022-10-16T02:35:33;5.78;;;4.10;;
11823;SDS011;5969;50.780;7.726;2022-10-16T02:38:01;4.00;;;3.67;;
11823;SDS011;5969;50.780;7.726;2022-10-16T02:40:28;3.90;;;3.60;;
11823;SDS011;5969;50.780;7.726;2022-10-16T02:42:55;5.03;;;3.47;;
11823;SDS011;5969;50.780;7.726;2022-10-16T02:45:22;6.95;;;3.45;;
11823;SDS011;5969;50.780;7.726;2022-10-16T02:47:51;5.88;;;3.67;;
11823;SDS011;5969;50.780;7.726;2022-10-16T02:50:18;3.50;;;2.92;;
11823;SDS011;5969;50.780;7.726;2022-10-16T02:52:45;4.47;;;2.95;;
11823;SDS011;5969;50.780;7.726;2022-10-16T02:55:12;6.97;;;2.83;;
11823;SDS011;5969;50.780;7.726;2022-10-16T02:57:39;5.03;;;2.70;;
11823;SDS011;5969;50.780;7.726;2022-10-16T03:00:09;4.45;;;2.42;;
11823;SDS011;5969;50.780;7.726;2022-10-16T03:02:39;5.13;;;3.15;;
11823;SDS011;5969;50.780;7.726;2022-10-16T03:05:08;3.97;;;2.92;;
11823;SDS011;5969;50.780;7.726;2022-10-16T03:07:35;4.70;;;3.20;;
11823;SDS011;5969;50.780;7.726;2022-10-16T03:10:02;2.97;;;2.75;;
11823;SDS011;5969;50.780;7.726;2022-10-16T03:12:29;4.13;;;2.30;;
11823;SDS011;5969;50.780;7.726;2022-10-16T03:14:56;2.95;;;2.30;;
11823;SDS011;5969;50.780;7.726;2022-10-16T03:17:24;4.68;;;2.63;;
11823;SDS011;5969;50.780;7.726;2022-10-16T03:19:51;4.28;;;2.70;;
11823;SDS011;5969;50.780;7.726;2022-10-16T03:22:19;4.38;;;2.70;;
11823;SDS011;5969;50.780;7.726;2022-10-16T03:24:46;3.60;;;2.50;;
11823;SDS011;5969;50.780;7.726;2022-10-16T03:27:13;4.65;;;2.40;;
11823;SDS011;5969;50.780;7.726;2022-10-16T03:29:39;3.63;;;3.05;;
11823;SDS011;5969;50.780;7.726;2022-10-16T03:32:06;2.63;;;2.10;;
11823;SDS011;5969;50.780;7.726;2022-10-16T03:34:33;2.20;;;2.05;;
11823;SDS011;5969;50.780;7.726;2022-10-16T03:37:00;4.00;;;2.30;;
11823;SDS011;5969;50.780;7.726;2022-10-16T03:39:28;2.13;;;1.92;;
11823;SDS011;5969;50.780;7.726;2022-10-16T03:41:55;3.17;;;2.42;;
11823;SDS011;5969;50.780;7.726;2022-10-16T03:44:22;2.30;;;2.10;;
11823;SDS011;5969;50.780;7.726;2022-10-16T03:46:48;3.45;;;2.35;;
11823;SDS011;5969;50.780;7.726;2022-10-16T03:49:15;4.00;;;2.35;;
11823;SDS011;5969;50.780;7.726;2022-10-16T03:51:42;3.88;;;2.35;;
11823;SDS011;5969;50.780;7.726;2022-10-16T03:54:09;4.93;;;2.20;;
11823;SDS011;5969;50.780;7.726;2022-10-16T03:56:37;2.50;;;2.30;;
11823;SDS011;5969;50.780;7.726;2022-10-16T03:59:04;4.90;;;2.08;;
11823;SDS011;5969;50.780;7.726;2022-10-16T04:01:31;2.15;;;1.90;;
11823;SDS011;5969;50.780;7.726;2022-10-16T04:03:58;2.42;;;2.22;;
11823;SDS011;5969;50.780;7.726;2022-10-16T04:06:25;4.22;;;2.38;;
11823;SDS011;5969;50.780;7.726;2022-10-16T04:08:51;3.75;;;2.20;;
11823;SDS011;5969;50.780;7.726;2022-10-16T04:11:18;3.17;;;2.38;;
11823;SDS011;5969;50.780;7.726;2022-10-16T04:13:46;4.32;;;2.40;;
11823;SDS011;5969;50.780;7.726;2022-10-16T04:16:13;4.70;;;2.15;;
11823;SDS011;5969;50.780;7.726;2022-10-16T04:18:40;3.13;;;2.20;;
11823;SDS011;5969;50.780;7.726;2022-10-16T04:21:07;3.90;;;2.45;;
11823;SDS011;5969;50.780;7.726;2022-10-16T04:23:34;4.90;;;2.03;;
11823;SDS011;5969;50.780;7.726;2022-10-16T04:26:01;2.63;;;1.60;;
11823;SDS011;5969;50.780;7.726;2022-10-16T04:28:28;2.97;;;1.80;;
11823;SDS011;5969;50.780;7.726;2022-10-16T04:30:57;2.28;;;1.90;;
11823;SDS011;5969;50.780;7.726;2022-10-16T04:33:23;3.40;;;2.03;;
11823;SDS011;5969;50.780;7.726;2022-10-16T04:35:55;3.28;;;1.90;;
11823;SDS011;5969;50.780;7.726;2022-10-16T04:38:22;1.90;;;1.80;;
11823;SDS011;5969;50.780;7.726;2022-10-16T04:40:49;2.65;;;2.28;;
11823;SDS011;5969;50.780;7.726;2022-10-16T04:43:16;4.85;;;2.30;;
11823;SDS011;5969;50.780;7.726;2022-10-16T04:45:43;6.95;;;2.80;;
11823;SDS011;5969;50.780;7.726;2022-10-16T04:48:11;3.70;;;2.30;;
11823;SDS011;5969;50.780;7.726;2022-10-16T04:50:38;3.78;;;2.03;;
11823;SDS011;5969;50.780;7.726;2022-10-16T04:53:05;2.38;;;2.17;;
11823;SDS011;5969;50.780;7.726;2022-10-16T04:55:32;2.53;;;2.17;;
11823;SDS011;5969;50.780;7.726;2022-10-16T04:57:59;6.97;;;2.40;;
11823;SDS011;5969;50.780;7.726;2022-10-16T05:00:26;3.88;;;2.05;;
11823;SDS011;5969;50.780;7.726;2022-10-16T05:02:53;3.28;;;2.05;;
11823;SDS011;5969;50.780;7.726;2022-10-16T05:05:21;2.10;;;1.90;;
11823;SDS011;5969;50.780;7.726;2022-10-16T05:07:48;5.32;;;2.22;;
11823;SDS011;5969;50.780;7.726;2022-10-16T05:10:15;2.28;;;2.08;;
11823;SDS011;5969;50.780;7.726;2022-10-16T05:12:42;2.30;;;2.10;;
11823;SDS011;5969;50.780;7.726;2022-10-16T05:15:09;2.35;;;2.00;;
11823;SDS011;5969;50.780;7.726;2022-10-16T05:17:36;5.43;;;1.92;;
11823;SDS011;5969;50.780;7.726;2022-10-16T05:20:03;4.43;;;1.92;;
11823;SDS011;5969;50.780;7.726;2022-10-16T05:22:32;3.42;;;1.88;;
11823;SDS011;5969;50.780;7.726;2022-10-16T05:24:59;2.97;;;2.03;;
11823;SDS011;5969;50.780;7.726;2022-10-16T05:27:26;3.92;;;1.67;;
11823;SDS011;5969;50.780;7.726;2022-10-16T05:29:53;1.98;;;1.60;;
11823;SDS011;5969;50.780;7.726;2022-10-16T05:32:20;2.10;;;1.70;;
11823;SDS011;5969;50.780;7.726;2022-10-16T05:34:46;1.60;;;1.50;;
11823;SDS011;5969;50.780;7.726;2022-10-16T05:37:13;1.30;;;1.20;;
11823;SDS011;5969;50.780;7.726;2022-10-16T05:39:41;2.20;;;1.58;;
11823;SDS011;5969;50.780;7.726;2022-10-16T05:42:09;1.70;;;1.25;;
11823;SDS011;5969;50.780;7.726;2022-10-16T05:44:36;4.88;;;1.45;;
11823;SDS011;5969;50.780;7.726;2022-10-16T05:47:03;2.90;;;1.40;;
11823;SDS011;5969;50.780;7.726;2022-10-16T05:49:30;1.88;;;1.25;;
11823;SDS011;5969;50.780;7.726;2022-10-16T05:51:57;4.78;;;1.38;;
11823;SDS011;5969;50.780;7.726;2022-10-16T05:54:24;1.88;;;1.35;;
11823;SDS011;5969;50.780;7.726;2022-10-16T05:56:52;1.20;;;1.10;;
11823;SDS011;5969;50.780;7.726;2022-10-16T05:59:19;2.08;;;1.33;;
11823;SDS011;5969;50.780;7.726;2022-10-16T06:01:45;2.03;;;1.27;;
11823;SDS011;5969;50.780;7.726;2022-10-16T06:04:12;1.58;;;1.10;;
11823;SDS011;5969;50.780;7.726;2022-10-16T06:06:39;1.23;;;1.13;;
11823;SDS011;5969;50.780;7.726;2022-10-16T06:09:06;4.93;;;1.10;;
11823;SDS011;5969;50.780;7.726;2022-10-16T06:11:33;1.10;;;1.00;;
11823;SDS011;5969;50.780;7.726;2022-10-16T06:14:02;3.63;;;1.05;;
11823;SDS011;5969;50.780;7.726;2022-10-16T06:16:31;1.73;;;1.10;;
11823;SDS011;5969;50.780;7.726;2022-10-16T06:18:59;2.17;;;1.20;;
11823;SDS011;5969;50.780;7.726;2022-10-16T06:21:26;1.10;;;1.00;;
11823;SDS011;5969;50.780;7.726;2022-10-16T06:23:54;3.63;;;1.05;;
11823;SDS011;5969;50.780;7.726;2022-10-16T06:26:23;2.80;;;1.10;;
11823;SDS011;5969;50.780;7.726;2022-10-16T06:28:51;1.33;;;1.10;;
11823;SDS011;5969;50.780;7.726;2022-10-16T06:31:21;1.90;;;1.00;;
11823;SDS011;5969;50.780;7.726;2022-10-16T06:33:52;2.40;;;0.95;;
11823;SDS011;5969;50.780;7.726;2022-10-16T06:36:19;3.38;;;1.58;;
11823;SDS011;5969;50.780;7.726;2022-10-16T06:38:47;1.63;;;0.82;;
11823;SDS011;5969;50.780;7.726;2022-10-16T06:41:14;1.73;;;0.93;;
11823;SDS011;5969;50.780;7.726;2022-10-16T06:43:43;1.67;;;1.00;;
11823;SDS011;5969;50.780;7.726;2022-10-16T06:46:11;4.72;;;0.90;;
11823;SDS011;5969;50.780;7.726;2022-10-16T06:48:40;2.97;;;0.98;;
11823;SDS011;5969;50.780;7.726;2022-10-16T06:51:08;1.00;;;0.80;;
11823;SDS011;5969;50.780;7.726;2022-10-16T06:53:38;1.45;;;1.00;;
11823;SDS011;5969;50.780;7.726;2022-10-16T06:56:09;1.80;;;1.00;;
11823;SDS011;5969;50.780;7.726;2022-10-16T06:58:37;3.20;;;1.10;;
11823;SDS011;5969;50.780;7.726;2022-10-16T07:01:05;1.27;;;0.80;;
11823;SDS011;5969;50.780;7.726;2022-10-16T07:03:32;1.00;;;0.90;;
11823;SDS011;5969;50.780;7.726;2022-10-16T07:06:02;1.10;;;1.00;;
11823;SDS011;5969;50.780;7.726;2022-10-16T07:08:30;2.03;;;1.25;;
11823;SDS011;5969;50.780;7.726;2022-10-16T07:10:58;1.42;;;1.08;;
11823;SDS011;5969;50.780;7.726;2022-10-16T07:13:27;3.50;;;1.20;;
11823;SDS011;5969;50.780;7.726;2022-10-16T07:15:54;3.67;;;1.00;;
11823;SDS011;5969;50.780;7.726;2022-10-16T07:18:21;1.52;;;1.00;;
11823;SDS011;5969;50.780;7.726;2022-10-16T07:20:51;1.30;;;1.08;;
11823;SDS011;5969;50.780;7.726;2022-10-16T07:23:19;1.73;;;1.00;;
11823;SDS011;5969;50.780;7.726;2022-10-16T07:25:52;1.70;;;1.10;;
11823;SDS011;5969;50.780;7.726;2022-10-16T07:28:20;1.45;;;1.00;;
11823;SDS011;5969;50.780;7.726;2022-10-16T07:30:47;2.15;;;1.00;;
11823;SDS011;5969;50.780;7.726;2022-10-16T07:33:14;1.45;;;0.90;;
11823;SDS011;5969;50.780;7.726;2022-10-16T07:35:47;1.02;;;0.90;;
11823;SDS011;5969;50.780;7.726;2022-10-16T07:38:15;2.60;;;1.13;;
11823;SDS011;5969;50.780;7.726;2022-10-16T07:40:43;1.23;;;0.95;;
11823;SDS011;5969;50.780;7.726;2022-10-16T07:43:10;3.22;;;1.10;;
11823;SDS011;5969;50.780;7.726;2022-10-16T07:45:37;1.63;;;1.20;;
11823;SDS011;5969;50.780;7.726;2022-10-16T07:48:12;2.03;;;1.00;;
11823;SDS011;5969;50.780;7.726;2022-10-16T07:50:39;1.98;;;0.93;;
11823;SDS011;5969;50.780;7.726;2022-10-16T07:53:06;1.67;;;0.90;;
11823;SDS011;5969;50.780;7.726;2022-10-16T07:55:33;1.00;;;0.90;;
11823;SDS011;5969;50.780;7.726;2022-10-16T07:58:01;0.85;;;0.82;;
11823;SDS011;5969;50.780;7.726;2022-10-16T08:00:29;1.45;;;0.98;;
11823;SDS011;5969;50.780;7.726;2022-10-16T08:02:56;3.20;;;0.95;;
11823;SDS011;5969;50.780;7.726;2022-10-16T08:05:25;1.40;;;1.10;;
11823;SDS011;5969;50.780;7.726;2022-10-16T08:07:52;1.52;;;1.05;;
11823;SDS011;5969;50.780;7.726;2022-10-16T08:10:19;3.83;;;1.05;;
11823;SDS011;5969;50.780;7.726;2022-10-16T08:12:47;1.98;;;1.20;;
11823;SDS011;5969;50.780;7.726;2022-10-16T08:15:16;1.25;;;1.00;;
11823;SDS011;5969;50.780;7.726;2022-10-16T08:17:43;1.15;;;1.00;;
11823;SDS011;5969;50.780;7.726;2022-10-16T08:20:10;2.60;;;0.90;;
11823;SDS011;5969;50.780;7.726;2022-10-16T08:22:37;2.08;;;0.90;;
11823;SDS011;5969;50.780;7.726;2022-10-16T08:25:04;1.20;;;0.98;;
11823;SDS011;5969;50.780;7.726;2022-10-16T08:27:31;1.08;;;0.90;;
11823;SDS011;5969;50.780;7.726;2022-10-16T08:29:58;2.35;;;0.90;;
11823;SDS011;5969;50.780;7.726;2022-10-16T08:32:26;1.92;;;1.10;;
11823;SDS011;5969;50.780;7.726;2022-10-16T08:34:53;2.47;;;1.00;;
11823;SDS011;5969;50.780;7.726;2022-10-16T08:37:20;6.43;;;1.27;;
11823;SDS011;5969;50.780;7.726;2022-10-16T08:39:47;1.70;;;1.10;;
11823;SDS011;5969;50.780;7.726;2022-10-16T08:42:17;2.72;;;0.90;;
11823;SDS011;5969;50.780;7.726;2022-10-16T08:45:19;1.58;;;0.90;;
11823;SDS011;5969;50.780;7.726;2022-10-16T08:48:00;1.20;;;1.10;;
11823;SDS011;5969;50.780;7.726;2022-10-16T08:50:38;1.90;;;0.88;;
11823;SDS011;5969;50.780;7.726;2022-10-16T08:53:06;1.98;;;0.82;;
11823;SDS011;5969;50.780;7.726;2022-10-16T08:55:41;1.38;;;1.00;;
11823;SDS011;5969;50.780;7.726;2022-10-16T08:58:12;2.10;;;1.00;;
11823;SDS011;5969;50.780;7.726;2022-10-16T09:00:40;1.75;;;0.90;;
11823;SDS011;5969;50.780;7.726;2022-10-16T09:03:13;3.72;;;1.00;;
11823;SDS011;5969;50.780;7.726;2022-10-16T09:05:58;1.23;;;1.00;;
11823;SDS011;5969;50.780;7.726;2022-10-16T09:08:46;1.90;;;0.80;;
11823;SDS011;5969;50.780;7.726;2022-10-16T09:11:26;3.42;;;0.82;;
11823;SDS011;5969;50.780;7.726;2022-10-16T09:14:03;1.80;;;0.80;;
11823;SDS011;5969;50.780;7.726;2022-10-16T09:16:44;2.15;;;0.90;;
11823;SDS011;5969;50.780;7.726;2022-10-16T09:19:18;2.90;;;1.05;;
11823;SDS011;5969;50.780;7.726;2022-10-16T09:21:50;1.13;;;1.10;;
11823;SDS011;5969;50.780;7.726;2022-10-16T09:24:19;1.33;;;0.80;;
11823;SDS011;5969;50.780;7.726;2022-10-16T09:26:47;2.70;;;1.00;;
11823;SDS011;5969;50.780;7.726;2022-10-16T09:29:14;2.45;;;1.00;;
11823;SDS011;5969;50.780;7.726;2022-10-16T09:31:42;1.65;;;0.90;;
11823;SDS011;5969;50.780;7.726;2022-10-16T09:34:11;1.88;;;0.95;;
11823;SDS011;5969;50.780;7.726;2022-10-16T09:36:49;1.90;;;0.80;;
11823;SDS011;5969;50.780;7.726;2022-10-16T09:39:17;0.80;;;0.80;;
11823;SDS011;5969;50.780;7.726;2022-10-16T09:41:44;1.60;;;1.00;;
11823;SDS011;5969;50.780;7.726;2022-10-16T09:44:17;2.53;;;0.90;;
11823;SDS011;5969;50.780;7.726;2022-10-16T09:46:47;1.45;;;0.98;;
11823;SDS011;5969;50.780;7.726;2022-10-16T09:49:20;2.25;;;0.80;;
11823;SDS011;5969;50.780;7.726;2022-10-16T09:51:49;2.65;;;0.95;;
11823;SDS011;5969;50.780;7.726;2022-10-16T09:54:20;1.40;;;1.15;;
11823;SDS011;5969;50.780;7.726;2022-10-16T09:56:48;2.53;;;1.00;;
11823;SDS011;5969;50.780;7.726;2022-10-16T09:59:17;1.95;;;0.80;;
11823;SDS011;5969;50.780;7.726;2022-10-16T10:01:45;0.80;;;0.80;;
11823;SDS011;5969;50.780;7.726;2022-10-16T10:04:14;2.72;;;0.80;;
11823;SDS011;5969;50.780;7.726;2022-10-16T10:06:43;2.95;;;1.10;;
11823;SDS011;5969;50.780;7.726;2022-10-16T10:09:19;0.95;;;0.88;;
11823;SDS011;5969;50.780;7.726;2022-10-16T10:11:48;1.92;;;0.88;;
11823;SDS011;5969;50.780;7.726;2022-10-16T10:14:19;2.05;;;1.00;;
11823;SDS011;5969;50.780;7.726;2022-10-16T10:19:46;1.17;;;0.88;;
11823;SDS011;5969;50.780;7.726;2022-10-16T10:22:21;0.88;;;0.80;;
11823;SDS011;5969;50.780;7.726;2022-10-16T10:25:00;1.95;;;0.80;;
11823;SDS011;5969;50.780;7.726;2022-10-16T10:27:54;0.82;;;0.82;;
11823;SDS011;5969;50.780;7.726;2022-10-16T10:30:35;1.48;;;1.00;;
11823;SDS011;5969;50.780;7.726;2022-10-16T10:33:14;2.70;;;0.90;;
11823;SDS011;5969;50.780;7.726;2022-10-16T10:35:49;1.15;;;0.80;;
11823;SDS011;5969;50.780;7.726;2022-10-16T10:38:27;3.15;;;0.82;;
11823;SDS011;5969;50.780;7.726;2022-10-16T10:41:04;0.98;;;0.90;;
11823;SDS011;5969;50.780;7.726;2022-10-16T10:43:47;1.63;;;0.80;;
11823;SDS011;5969;50.780;7.726;2022-10-16T10:46:26;0.70;;;0.70;;
11823;SDS011;5969;50.780;7.726;2022-10-16T10:49:04;1.58;;;0.70;;
11823;SDS011;5969;50.780;7.726;2022-10-16T10:51:44;1.88;;;1.17;;
11823;SDS011;5969;50.780;7.726;2022-10-16T10:54:22;1.02;;;0.82;;
11823;SDS011;5969;50.780;7.726;2022-10-16T10:56:56;0.80;;;0.60;;
11823;SDS011;5969;50.780;7.726;2022-10-16T10:59:30;1.60;;;0.93;;
11823;SDS011;5969;50.780;7.726;2022-10-16T11:02:09;2.13;;;0.80;;
11823;SDS011;5969;50.780;7.726;2022-10-16T11:04:50;2.55;;;1.15;;
11823;SDS011;5969;50.780;7.726;2022-10-16T11:07:39;1.25;;;0.70;;
11823;SDS011;5969;50.780;7.726;2022-10-16T11:10:13;0.93;;;0.80;;
11823;SDS011;5969;50.780;7.726;2022-10-16T11:12:44;0.90;;;0.70;;
11823;SDS011;5969;50.780;7.726;2022-10-16T11:15:14;1.25;;;0.65;;
11823;SDS011;5969;50.780;7.726;2022-10-16T11:17:45;0.80;;;0.60;;
11823;SDS011;5969;50.780;7.726;2022-10-16T11:20:18;0.60;;;0.60;;
11823;SDS011;5969;50.780;7.726;2022-10-16T11:22:48;0.75;;;0.60;;
11823;SDS011;5969;50.780;7.726;2022-10-16T11:25:21;1.35;;;0.70;;
11823;SDS011;5969;50.780;7.726;2022-10-16T11:27:51;1.90;;;0.73;;
11823;SDS011;5969;50.780;7.726;2022-10-16T11:30:24;0.70;;;0.60;;
11823;SDS011;5969;50.780;7.726;2022-10-16T11:32:54;1.20;;;0.70;;
11823;SDS011;5969;50.780;7.726;2022-10-16T11:35:33;2.15;;;0.57;;
11823;SDS011;5969;50.780;7.726;2022-10-16T11:40:40;1.35;;;0.70;;
11823;SDS011;5969;50.780;7.726;2022-10-16T11:43:13;1.48;;;0.70;;
11823;SDS011;5969;50.780;7.726;2022-10-16T11:45:47;3.13;;;0.70;;
11823;SDS011;5969;50.780;7.726;2022-10-16T11:48:20;1.48;;;0.70;;
11823;SDS011;5969;50.780;7.726;2022-10-16T11:50:53;1.65;;;0.70;;
11823;SDS011;5969;50.780;7.726;2022-10-16T11:53:23;1.70;;;0.60;;
11823;SDS011;5969;50.780;7.726;2022-10-16T11:56:02;1.90;;;0.52;;
11823;SDS011;5969;50.780;7.726;2022-10-16T11:58:31;1.60;;;0.70;;
11823;SDS011;5969;50.780;7.726;2022-10-16T12:01:04;0.65;;;0.50;;
11823;SDS011;5969;50.780;7.726;2022-10-16T12:03:44;1.08;;;0.63;;
11823;SDS011;5969;50.780;7.726;2022-10-16T12:06:25;1.35;;;0.65;;
11823;SDS011;5969;50.780;7.726;2022-10-16T12:08:58;0.80;;;0.70;;
11823;SDS011;5969;50.780;7.726;2022-10-16T12:11:37;1.55;;;0.63;;
11823;SDS011;5969;50.780;7.726;2022-10-16T12:14:06;4.15;;;0.65;;
11823;SDS011;5969;50.780;7.726;2022-10-16T12:16:52;2.10;;;0.70;;
11823;SDS011;5969;50.780;7.726;2022-10-16T12:19:21;1.40;;;0.50;;
11823;SDS011;5969;50.780;7.726;2022-10-16T12:21:50;1.05;;;0.60;;
11823;SDS011;5969;50.780;7.726;2022-10-16T12:24:33;2.28;;;0.70;;
11823;SDS011;5969;50.780;7.726;2022-10-16T12:27:04;2.25;;;0.70;;
11823;SDS011;5969;50.780;7.726;2022-10-16T12:29:45;1.27;;;0.45;;
11823;SDS011;5969;50.780;7.726;2022-10-16T12:32:22;1.75;;;0.50;;
11823;SDS011;5969;50.780;7.726;2022-10-16T12:34:54;2.75;;;0.73;;
11823;SDS011;5969;50.780;7.726;2022-10-16T12:37:21;2.08;;;0.70;;
11823;SDS011;5969;50.780;7.726;2022-10-16T12:39:50;3.10;;;0.68;;
11823;SDS011;5969;50.780;7.726;2022-10-16T12:42:22;2.22;;;0.60;;
11823;SDS011;5969;50.780;7.726;2022-10-16T12:44:56;1.05;;;0.68;;
11823;SDS011;5969;50.780;7.726;2022-10-16T12:47:24;1.67;;;0.80;;
11823;SDS011;5969;50.780;7.726;2022-10-16T12:50:03;1.83;;;0.70;;
11823;SDS011;5969;50.780;7.726;2022-10-16T12:52:49;1.25;;;0.75;;
11823;SDS011;5969;50.780;7.726;2022-10-16T12:55:16;2.90;;;0.60;;
11823;SDS011;5969;50.780;7.726;2022-10-16T12:57:48;1.00;;;0.70;;
11823;SDS011;5969;50.780;7.726;2022-10-16T13:00:31;0.95;;;0.80;;
11823;SDS011;5969;50.780;7.726;2022-10-16T13:03:22;1.75;;;0.65;;
11823;SDS011;5969;50.780;7.726;2022-10-16T13:06:04;1.98;;;0.77;;
11823;SDS011;5969;50.780;7.726;2022-10-16T13:08:53;1.20;;;0.70;;
11823;SDS011;5969;50.780;7.726;2022-10-16T13:11:47;1.48;;;0.80;;
11823;SDS011;5969;50.780;7.726;2022-10-16T13:14:35;1.10;;;0.60;;
11823;SDS011;5969;50.780;7.726;2022-10-16T13:17:15;0.63;;;0.52;;
11823;SDS011;5969;50.780;7.726;2022-10-16T13:19:51;1.58;;;0.88;;
11823;SDS011;5969;50.780;7.726;2022-10-16T13:22:24;1.95;;;0.60;;
11823;SDS011;5969;50.780;7.726;2022-10-16T13:25:02;2.33;;;0.60;;
11823;SDS011;5969;50.780;7.726;2022-10-16T13:30:13;1.05;;;0.55;;
11823;SDS011;5969;50.780;7.726;2022-10-16T13:32:44;1.08;;;0.63;;
11823;SDS011;5969;50.780;7.726;2022-10-16T13:37:48;1.65;;;0.70;;
11823;SDS011;5969;50.780;7.726;2022-10-16T13:40:20;2.00;;;0.70;;
11823;SDS011;5969;50.780;7.726;2022-10-16T13:45:20;1.58;;;0.60;;
11823;SDS011;5969;50.780;7.726;2022-10-16T13:47:48;2.78;;;0.50;;
11823;SDS011;5969;50.780;7.726;2022-10-16T13:50:18;0.70;;;0.70;;
11823;SDS011;5969;50.780;7.726;2022-10-16T13:52:45;1.98;;;0.60;;
11823;SDS011;5969;50.780;7.726;2022-10-16T13:55:12;1.77;;;0.60;;
11823;SDS011;5969;50.780;7.726;2022-10-16T13:57:40;2.25;;;0.70;;
11823;SDS011;5969;50.780;7.726;2022-10-16T14:00:17;2.50;;;0.60;;
11823;SDS011;5969;50.780;7.726;2022-10-16T14:02:53;2.20;;;0.60;;
11823;SDS011;5969;50.780;7.726;2022-10-16T14:05:25;2.65;;;0.60;;
11823;SDS011;5969;50.780;7.726;2022-10-16T14:07:52;1.83;;;0.70;;
11823;SDS011;5969;50.780;7.726;2022-10-16T14:10:22;1.77;;;0.80;;
11823;SDS011;5969;50.780;7.726;2022-10-16T14:12:57;1.05;;;0.68;;
11823;SDS011;5969;50.780;7.726;2022-10-16T14:15:27;1.77;;;0.70;;
11823;SDS011;5969;50.780;7.726;2022-10-16T14:17:55;1.65;;;0.63;;
11823;SDS011;5969;50.780;7.726;2022-10-16T14:20:23;1.02;;;0.80;;
11823;SDS011;5969;50.780;7.726;2022-10-16T14:22:59;1.23;;;0.60;;
11823;SDS011;5969;50.780;7.726;2022-10-16T14:25:28;1.73;;;0.70;;
11823;SDS011;5969;50.780;7.726;2022-10-16T14:27:57;0.80;;;0.50;;
11823;SDS011;5969;50.780;7.726;2022-10-16T14:30:28;2.63;;;0.70;;
11823;SDS011;5969;50.780;7.726;2022-10-16T14:32:56;3.28;;;0.80;;
11823;SDS011;5969;50.780;7.726;2022-10-16T14:35:25;1.05;;;0.68;;
11823;SDS011;5969;50.780;7.726;2022-10-16T14:37:54;1.45;;;0.73;;
11823;SDS011;5969;50.780;7.726;2022-10-16T14:40:23;1.08;;;0.70;;
11823;SDS011;5969;50.780;7.726;2022-10-16T14:42:52;1.80;;;0.50;;
11823;SDS011;5969;50.780;7.726;2022-10-16T14:45:20;0.77;;;0.57;;
11823;SDS011;5969;50.780;7.726;2022-10-16T14:47:50;0.60;;;0.40;;
11823;SDS011;5969;50.780;7.726;2022-10-16T14:50:20;1.13;;;0.80;;
11823;SDS011;5969;50.780;7.726;2022-10-16T14:52:47;1.00;;;0.47;;
11823;SDS011;5969;50.780;7.726;2022-10-16T14:55:14;1.02;;;0.55;;
11823;SDS011;5969;50.780;7.726;2022-10-16T14:57:42;2.13;;;0.70;;
11823;SDS011;5969;50.780;7.726;2022-10-16T15:00:13;0.60;;;0.60;;
11823;SDS011;5969;50.780;7.726;2022-10-16T15:02:43;0.57;;;0.50;;
11823;SDS011;5969;50.780;7.726;2022-10-16T15:05:13;0.75;;;0.75;;
11823;SDS011;5969;50.780;7.726;2022-10-16T15:07:43;2.72;;;0.77;;
11823;SDS011;5969;50.780;7.726;2022-10-16T15:10:11;2.47;;;0.70;;
11823;SDS011;5969;50.780;7.726;2022-10-16T15:12:38;1.25;;;0.70;;
11823;SDS011;5969;50.780;7.726;2022-10-16T15:17:57;1.85;;;0.80;;
11823;SDS011;5969;50.780;7.726;2022-10-16T15:20:27;1.02;;;0.60;;
11823;SDS011;5969;50.780;7.726;2022-10-16T15:22:55;2.55;;;0.70;;
11823;SDS011;5969;50.780;7.726;2022-10-16T15:25:27;0.93;;;0.80;;
11823;SDS011;5969;50.780;7.726;2022-10-16T15:28:00;0.90;;;0.60;;
11823;SDS011;5969;50.780;7.726;2022-10-16T15:30:28;0.98;;;0.63;;
11823;SDS011;5969;50.780;7.726;2022-10-16T15:32:56;1.90;;;0.70;;
11823;SDS011;5969;50.780;7.726;2022-10-16T15:35:23;1.88;;;0.60;;